sensor_id;sensor_type;location;lat;lon;timestamp;temperature;humidity
21759;DHT22;11041;50.854;20.580;2023-08-12T00:00:37;12.40;99.90
21759;DHT22;11041;50.854;20.580;2023-08-12T00:03:30;12.50;99.90
21759;DHT22;11041;50.854;20.580;2023-08-12T00:05:59;12.40;99.90
21759;DHT22;11041;50.854;20.580;2023-08-12T00:08:35;12.40;99.90
21759;DHT22;11041;50.854;20.580;2023-08-12T00:11:08;12.40;99.90
21759;DHT22;11041;50.854;20.580;2023-08-12T00:13:40;12.30;99.90
21759;DHT22;11041;50.854;20.580;2023-08-12T00:16:11;12.30;99.90
21759;DHT22;11041;50.854;20.580;2023-08-12T00:18:39;12.30;99.90
21759;DHT22;11041;50.854;20.580;2023-08-12T00:21:10;12.20;99.90
21759;DHT22;11041;50.854;20.580;2023-08-12T00:23:43;12.30;99.90
21759;DHT22;11041;50.854;20.580;2023-08-12T00:26:13;12.20;99.90
21759;DHT22;11041;50.854;20.580;2023-08-12T00:28:48;12.20;99.90
21759;DHT22;11041;50.854;20.580;2023-08-12T00:31:16;12.10;99.90
21759;DHT22;11041;50.854;20.580;2023-08-12T00:33:46;12.10;99.90
21759;DHT22;11041;50.854;20.580;2023-08-12T00:36:17;12.10;99.90
21759;DHT22;11041;50.854;20.580;2023-08-12T00:38:44;12.00;99.90
21759;DHT22;11041;50.854;20.580;2023-08-12T00:41:19;12.10;99.90
21759;DHT22;11041;50.854;20.580;2023-08-12T00:43:49;12.10;99.90
21759;DHT22;11041;50.854;20.580;2023-08-12T00:46:24;12.10;99.90
21759;DHT22;11041;50.854;20.580;2023-08-12T00:48:56;12.00;99.90
21759;DHT22;11041;50.854;20.580;2023-08-12T00:51:29;12.00;99.90
21759;DHT22;11041;50.854;20.580;2023-08-12T00:53:59;12.00;99.90
21759;DHT22;11041;50.854;20.580;2023-08-12T00:56:30;12.00;99.90
21759;DHT22;11041;50.854;20.580;2023-08-12T00:59:04;11.90;99.90
21759;DHT22;11041;50.854;20.580;2023-08-12T01:01:36;11.90;99.90
21759;DHT22;11041;50.854;20.580;2023-08-12T01:04:13;11.90;99.90
21759;DHT22;11041;50.854;20.580;2023-08-12T01:06:45;11.90;99.90
21759;DHT22;11041;50.854;20.580;2023-08-12T01:09:17;11.90;99.90
21759;DHT22;11041;50.854;20.580;2023-08-12T01:11:55;11.90;99.90
21759;DHT22;11041;50.854;20.580;2023-08-12T01:17:12;11.90;99.90
21759;DHT22;11041;50.854;20.580;2023-08-12T01:19:47;11.90;99.90
21759;DHT22;11041;50.854;20.580;2023-08-12T01:22:21;11.80;99.90
21759;DHT22;11041;50.854;20.580;2023-08-12T01:24:58;11.80;99.90
21759;DHT22;11041;50.854;20.580;2023-08-12T01:27:33;11.80;99.90
21759;DHT22;11041;50.854;20.580;2023-08-12T01:30:05;11.80;99.90
21759;DHT22;11041;50.854;20.580;2023-08-12T01:32:46;11.80;99.90
21759;DHT22;11041;50.854;20.580;2023-08-12T01:35:32;11.70;99.90
21759;DHT22;11041;50.854;20.580;2023-08-12T01:38:08;11.70;99.90
21759;DHT22;11041;50.854;20.580;2023-08-12T01:40:38;11.60;99.90
21759;DHT22;11041;50.854;20.580;2023-08-12T01:43:11;11.50;99.90
21759;DHT22;11041;50.854;20.580;2023-08-12T01:45:41;11.50;99.90
21759;DHT22;11041;50.854;20.580;2023-08-12T01:48:14;11.40;99.90
21759;DHT22;11041;50.854;20.580;2023-08-12T01:50:47;11.40;99.90
21759;DHT22;11041;50.854;20.580;2023-08-12T01:53:19;11.40;99.90
21759;DHT22;11041;50.854;20.580;2023-08-12T01:55:53;11.40;99.90
21759;DHT22;11041;50.854;20.580;2023-08-12T01:58:21;11.40;99.90
21759;DHT22;11041;50.854;20.580;2023-08-12T02:00:54;11.50;99.90
21759;DHT22;11041;50.854;20.580;2023-08-12T02:03:26;11.40;99.90
21759;DHT22;11041;50.854;20.580;2023-08-12T02:05:54;11.40;99.90
21759;DHT22;11041;50.854;20.580;2023-08-12T02:08:21;11.50;99.90
21759;DHT22;11041;50.854;20.580;2023-08-12T02:10:53;11.50;99.90
21759;DHT22;11041;50.854;20.580;2023-08-12T02:13:25;11.50;99.90
21759;DHT22;11041;50.854;20.580;2023-08-12T02:15:55;11.50;99.90
21759;DHT22;11041;50.854;20.580;2023-08-12T02:18:26;11.50;99.90
21759;DHT22;11041;50.854;20.580;2023-08-12T02:20:55;11.40;99.90
21759;DHT22;11041;50.854;20.580;2023-08-12T02:23:30;11.30;99.90
21759;DHT22;11041;50.854;20.580;2023-08-12T02:26:00;11.30;99.90
21759;DHT22;11041;50.854;20.580;2023-08-12T02:28:33;11.30;99.90
21759;DHT22;11041;50.854;20.580;2023-08-12T02:31:07;11.30;99.90
21759;DHT22;11041;50.854;20.580;2023-08-12T02:33:40;11.30;99.90
21759;DHT22;11041;50.854;20.580;2023-08-12T02:36:09;11.30;99.90
21759;DHT22;11041;50.854;20.580;2023-08-12T02:38:44;11.30;99.90
21759;DHT22;11041;50.854;20.580;2023-08-12T02:41:17;11.30;99.90
21759;DHT22;11041;50.854;20.580;2023-08-12T02:43:45;11.30;99.90
21759;DHT22;11041;50.854;20.580;2023-08-12T02:46:18;11.30;99.90
21759;DHT22;11041;50.854;20.580;2023-08-12T02:48:51;11.20;99.90
21759;DHT22;11041;50.854;20.580;2023-08-12T02:51:18;11.20;99.90
21759;DHT22;11041;50.854;20.580;2023-08-12T02:53:54;11.10;99.90
21759;DHT22;11041;50.854;20.580;2023-08-12T02:56:21;11.10;99.90
21759;DHT22;11041;50.854;20.580;2023-08-12T02:58:56;11.10;99.90
21759;DHT22;11041;50.854;20.580;2023-08-12T03:01:24;11.00;99.90
21759;DHT22;11041;50.854;20.580;2023-08-12T03:03:56;11.00;99.90
21759;DHT22;11041;50.854;20.580;2023-08-12T03:06:28;11.00;99.90
21759;DHT22;11041;50.854;20.580;2023-08-12T03:09:00;11.10;99.90
21759;DHT22;11041;50.854;20.580;2023-08-12T03:11:28;11.00;99.90
21759;DHT22;11041;50.854;20.580;2023-08-12T03:14:01;11.00;99.90
21759;DHT22;11041;50.854;20.580;2023-08-12T03:16:37;10.60;99.90
21759;DHT22;11041;50.854;20.580;2023-08-12T03:19:06;10.50;99.90
21759;DHT22;11041;50.854;20.580;2023-08-12T03:21:36;10.30;99.90
21759;DHT22;11041;50.854;20.580;2023-08-12T03:24:10;10.50;99.90
21759;DHT22;11041;50.854;20.580;2023-08-12T03:26:40;10.60;99.90
21759;DHT22;11041;50.854;20.580;2023-08-12T03:29:09;10.60;99.90
21759;DHT22;11041;50.854;20.580;2023-08-12T03:31:42;10.70;99.90
21759;DHT22;11041;50.854;20.580;2023-08-12T03:34:12;10.80;99.90
21759;DHT22;11041;50.854;20.580;2023-08-12T03:36:44;10.80;99.90
21759;DHT22;11041;50.854;20.580;2023-08-12T03:39:17;10.80;99.90
21759;DHT22;11041;50.854;20.580;2023-08-12T03:41:49;10.80;99.90
21759;DHT22;11041;50.854;20.580;2023-08-12T03:44:22;10.90;99.90
21759;DHT22;11041;50.854;20.580;2023-08-12T03:46:53;10.90;99.90
21759;DHT22;11041;50.854;20.580;2023-08-12T03:49:21;10.90;99.90
21759;DHT22;11041;50.854;20.580;2023-08-12T03:51:55;10.90;99.90
21759;DHT22;11041;50.854;20.580;2023-08-12T03:54:30;10.90;99.90
21759;DHT22;11041;50.854;20.580;2023-08-12T03:57:01;10.90;99.90
21759;DHT22;11041;50.854;20.580;2023-08-12T03:59:33;10.90;99.90
21759;DHT22;11041;50.854;20.580;2023-08-12T04:02:09;11.00;99.90
21759;DHT22;11041;50.854;20.580;2023-08-12T04:04:36;10.90;99.90
21759;DHT22;11041;50.854;20.580;2023-08-12T04:07:08;11.00;99.90
21759;DHT22;11041;50.854;20.580;2023-08-12T04:09:40;11.00;99.90
21759;DHT22;11041;50.854;20.580;2023-08-12T04:12:14;11.00;99.90
21759;DHT22;11041;50.854;20.580;2023-08-12T04:14:50;11.10;99.90
21759;DHT22;11041;50.854;20.580;2023-08-12T04:17:22;11.20;99.90
21759;DHT22;11041;50.854;20.580;2023-08-12T04:19:54;11.20;99.90
21759;DHT22;11041;50.854;20.580;2023-08-12T04:22:23;11.20;99.90
21759;DHT22;11041;50.854;20.580;2023-08-12T04:24:53;11.30;99.90
21759;DHT22;11041;50.854;20.580;2023-08-12T04:27:24;11.40;99.90
21759;DHT22;11041;50.854;20.580;2023-08-12T04:29:53;11.50;99.90
21759;DHT22;11041;50.854;20.580;2023-08-12T04:32:33;11.50;99.90
21759;DHT22;11041;50.854;20.580;2023-08-12T04:35:06;11.60;99.90
21759;DHT22;11041;50.854;20.580;2023-08-12T04:37:37;11.70;99.90
21759;DHT22;11041;50.854;20.580;2023-08-12T04:40:13;11.70;99.90
21759;DHT22;11041;50.854;20.580;2023-08-12T04:42:42;11.80;99.90
21759;DHT22;11041;50.854;20.580;2023-08-12T04:45:13;11.90;99.90
21759;DHT22;11041;50.854;20.580;2023-08-12T04:47:44;11.80;99.90
21759;DHT22;11041;50.854;20.580;2023-08-12T04:50:11;11.80;99.90
21759;DHT22;11041;50.854;20.580;2023-08-12T04:52:43;12.00;99.90
21759;DHT22;11041;50.854;20.580;2023-08-12T04:55:10;12.10;99.90
21759;DHT22;11041;50.854;20.580;2023-08-12T04:57:43;12.20;99.90
21759;DHT22;11041;50.854;20.580;2023-08-12T05:00:21;12.30;99.90
21759;DHT22;11041;50.854;20.580;2023-08-12T05:02:52;12.40;99.90
21759;DHT22;11041;50.854;20.580;2023-08-12T05:05:22;12.50;99.90
21759;DHT22;11041;50.854;20.580;2023-08-12T05:07:55;12.60;99.90
21759;DHT22;11041;50.854;20.580;2023-08-12T05:10:25;12.70;99.90
21759;DHT22;11041;50.854;20.580;2023-08-12T05:12:57;12.90;99.90
21759;DHT22;11041;50.854;20.580;2023-08-12T05:15:25;12.90;99.90
21759;DHT22;11041;50.854;20.580;2023-08-12T05:17:57;13.10;99.90
21759;DHT22;11041;50.854;20.580;2023-08-12T05:20:28;13.20;99.90
21759;DHT22;11041;50.854;20.580;2023-08-12T05:23:00;13.30;99.90
21759;DHT22;11041;50.854;20.580;2023-08-12T05:25:32;13.30;99.90
21759;DHT22;11041;50.854;20.580;2023-08-12T05:28:05;13.40;99.90
21759;DHT22;11041;50.854;20.580;2023-08-12T05:30:34;13.60;99.90
21759;DHT22;11041;50.854;20.580;2023-08-12T05:33:05;13.70;99.90
21759;DHT22;11041;50.854;20.580;2023-08-12T05:35:36;13.80;99.90
21759;DHT22;11041;50.854;20.580;2023-08-12T05:38:08;13.90;99.90
21759;DHT22;11041;50.854;20.580;2023-08-12T05:40:40;14.00;99.90
21759;DHT22;11041;50.854;20.580;2023-08-12T05:43:13;14.10;99.90
21759;DHT22;11041;50.854;20.580;2023-08-12T05:45:45;14.20;99.90
21759;DHT22;11041;50.854;20.580;2023-08-12T05:48:17;14.30;99.90
21759;DHT22;11041;50.854;20.580;2023-08-12T05:50:46;14.40;99.90
21759;DHT22;11041;50.854;20.580;2023-08-12T05:53:19;14.50;99.90
21759;DHT22;11041;50.854;20.580;2023-08-12T05:55:49;14.60;99.90
21759;DHT22;11041;50.854;20.580;2023-08-12T05:58:17;14.70;99.90
21759;DHT22;11041;50.854;20.580;2023-08-12T06:00:47;14.80;99.90
21759;DHT22;11041;50.854;20.580;2023-08-12T06:03:21;14.90;99.90
21759;DHT22;11041;50.854;20.580;2023-08-12T06:05:53;15.00;99.90
21759;DHT22;11041;50.854;20.580;2023-08-12T06:08:21;15.10;99.90
21759;DHT22;11041;50.854;20.580;2023-08-12T06:10:57;15.20;99.90
21759;DHT22;11041;50.854;20.580;2023-08-12T06:13:26;15.30;99.90
21759;DHT22;11041;50.854;20.580;2023-08-12T06:15:54;15.40;99.90
21759;DHT22;11041;50.854;20.580;2023-08-12T06:18:26;15.60;99.90
21759;DHT22;11041;50.854;20.580;2023-08-12T06:20:58;15.70;99.90
21759;DHT22;11041;50.854;20.580;2023-08-12T06:23:30;15.80;99.90
21759;DHT22;11041;50.854;20.580;2023-08-12T06:25:58;16.00;99.90
21759;DHT22;11041;50.854;20.580;2023-08-12T06:28:28;16.30;99.90
21759;DHT22;11041;50.854;20.580;2023-08-12T06:30:59;16.40;99.90
21759;DHT22;11041;50.854;20.580;2023-08-12T06:33:26;16.50;99.90
21759;DHT22;11041;50.854;20.580;2023-08-12T06:35:58;16.70;99.90
21759;DHT22;11041;50.854;20.580;2023-08-12T06:38:31;16.90;99.90
21759;DHT22;11041;50.854;20.580;2023-08-12T06:40:58;17.00;99.90
21759;DHT22;11041;50.854;20.580;2023-08-12T06:43:27;17.10;99.90
21759;DHT22;11041;50.854;20.580;2023-08-12T06:45:57;17.20;99.90
21759;DHT22;11041;50.854;20.580;2023-08-12T06:48:31;17.50;99.90
21759;DHT22;11041;50.854;20.580;2023-08-12T06:51:00;17.60;99.90
21759;DHT22;11041;50.854;20.580;2023-08-12T06:53:38;17.70;99.90
21759;DHT22;11041;50.854;20.580;2023-08-12T06:56:07;17.90;99.90
21759;DHT22;11041;50.854;20.580;2023-08-12T06:58:36;18.00;99.90
21759;DHT22;11041;50.854;20.580;2023-08-12T07:01:02;18.20;99.90
21759;DHT22;11041;50.854;20.580;2023-08-12T07:03:30;18.30;99.90
21759;DHT22;11041;50.854;20.580;2023-08-12T07:05:59;18.40;99.90
21759;DHT22;11041;50.854;20.580;2023-08-12T07:08:27;18.60;99.90
21759;DHT22;11041;50.854;20.580;2023-08-12T07:10:57;18.80;99.90
21759;DHT22;11041;50.854;20.580;2023-08-12T07:13:26;19.00;99.90
21759;DHT22;11041;50.854;20.580;2023-08-12T07:15:54;19.10;99.90
21759;DHT22;11041;50.854;20.580;2023-08-12T07:18:23;19.30;99.90
21759;DHT22;11041;50.854;20.580;2023-08-12T07:20:50;19.30;99.90
21759;DHT22;11041;50.854;20.580;2023-08-12T07:23:18;19.40;99.90
21759;DHT22;11041;50.854;20.580;2023-08-12T07:25:48;19.40;99.90
21759;DHT22;11041;50.854;20.580;2023-08-12T07:28:18;19.60;99.90
21759;DHT22;11041;50.854;20.580;2023-08-12T07:30:45;19.60;99.90
21759;DHT22;11041;50.854;20.580;2023-08-12T07:33:15;19.70;99.90
21759;DHT22;11041;50.854;20.580;2023-08-12T07:35:46;19.90;99.90
21759;DHT22;11041;50.854;20.580;2023-08-12T07:38:17;20.10;99.90
21759;DHT22;11041;50.854;20.580;2023-08-12T07:40:50;20.20;99.90
21759;DHT22;11041;50.854;20.580;2023-08-12T07:43:19;20.10;99.90
21759;DHT22;11041;50.854;20.580;2023-08-12T07:45:53;20.30;99.90
21759;DHT22;11041;50.854;20.580;2023-08-12T07:48:26;20.30;99.90
21759;DHT22;11041;50.854;20.580;2023-08-12T07:51:02;20.40;99.90
21759;DHT22;11041;50.854;20.580;2023-08-12T07:53:33;20.50;99.90
21759;DHT22;11041;50.854;20.580;2023-08-12T07:56:03;20.50;99.90
21759;DHT22;11041;50.854;20.580;2023-08-12T07:58:34;20.50;99.90
21759;DHT22;11041;50.854;20.580;2023-08-12T08:01:05;20.50;99.90
21759;DHT22;11041;50.854;20.580;2023-08-12T08:03:39;20.60;99.90
21759;DHT22;11041;50.854;20.580;2023-08-12T08:06:15;20.50;99.90
21759;DHT22;11041;50.854;20.580;2023-08-12T08:08:52;20.50;99.90
21759;DHT22;11041;50.854;20.580;2023-08-12T08:11:24;20.70;99.90
21759;DHT22;11041;50.854;20.580;2023-08-12T08:13:59;20.70;99.90
21759;DHT22;11041;50.854;20.580;2023-08-12T08:16:31;20.80;99.90
21759;DHT22;11041;50.854;20.580;2023-08-12T08:19:05;20.80;99.90
21759;DHT22;11041;50.854;20.580;2023-08-12T08:21:38;20.90;99.90
21759;DHT22;11041;50.854;20.580;2023-08-12T08:24:08;21.00;99.90
21759;DHT22;11041;50.854;20.580;2023-08-12T08:26:41;21.00;99.90
21759;DHT22;11041;50.854;20.580;2023-08-12T08:29:10;21.20;99.90
21759;DHT22;11041;50.854;20.580;2023-08-12T08:31:44;21.20;99.90
21759;DHT22;11041;50.854;20.580;2023-08-12T08:34:15;21.20;99.90
21759;DHT22;11041;50.854;20.580;2023-08-12T08:36:46;21.20;99.90
21759;DHT22;11041;50.854;20.580;2023-08-12T08:39:16;21.20;99.90
21759;DHT22;11041;50.854;20.580;2023-08-12T08:41:55;21.30;99.90
21759;DHT22;11041;50.854;20.580;2023-08-12T08:44:29;21.30;99.90
21759;DHT22;11041;50.854;20.580;2023-08-12T08:47:02;21.40;99.90
21759;DHT22;11041;50.854;20.580;2023-08-12T08:49:36;21.40;99.90
21759;DHT22;11041;50.854;20.580;2023-08-12T08:52:10;21.50;99.90
21759;DHT22;11041;50.854;20.580;2023-08-12T08:54:39;21.60;99.90
21759;DHT22;11041;50.854;20.580;2023-08-12T08:57:08;21.60;99.90
21759;DHT22;11041;50.854;20.580;2023-08-12T08:59:42;21.70;99.90
21759;DHT22;11041;50.854;20.580;2023-08-12T09:02:20;21.80;99.90
21759;DHT22;11041;50.854;20.580;2023-08-12T09:04:54;21.80;99.90
21759;DHT22;11041;50.854;20.580;2023-08-12T09:07:29;21.80;99.90
21759;DHT22;11041;50.854;20.580;2023-08-12T09:10:03;21.80;99.90
21759;DHT22;11041;50.854;20.580;2023-08-12T09:12:31;21.80;99.90
21759;DHT22;11041;50.854;20.580;2023-08-12T09:15:03;21.90;99.90
21759;DHT22;11041;50.854;20.580;2023-08-12T09:17:33;21.90;99.90
21759;DHT22;11041;50.854;20.580;2023-08-12T09:20:08;22.00;99.90
21759;DHT22;11041;50.854;20.580;2023-08-12T09:22:42;22.10;99.90
21759;DHT22;11041;50.854;20.580;2023-08-12T09:25:14;22.20;99.90
21759;DHT22;11041;50.854;20.580;2023-08-12T09:27:53;22.30;99.90
21759;DHT22;11041;50.854;20.580;2023-08-12T09:30:31;22.20;99.90
21759;DHT22;11041;50.854;20.580;2023-08-12T09:33:02;22.40;99.90
21759;DHT22;11041;50.854;20.580;2023-08-12T09:35:39;22.50;99.90
21759;DHT22;11041;50.854;20.580;2023-08-12T09:38:15;22.50;99.90
21759;DHT22;11041;50.854;20.580;2023-08-12T09:40:48;22.50;99.90
21759;DHT22;11041;50.854;20.580;2023-08-12T09:43:28;22.50;99.90
21759;DHT22;11041;50.854;20.580;2023-08-12T09:46:00;22.60;99.90
21759;DHT22;11041;50.854;20.580;2023-08-12T09:48:35;22.70;99.90
21759;DHT22;11041;50.854;20.580;2023-08-12T09:51:05;22.60;99.90
21759;DHT22;11041;50.854;20.580;2023-08-12T09:53:42;22.60;99.90
21759;DHT22;11041;50.854;20.580;2023-08-12T09:56:20;22.70;99.90
21759;DHT22;11041;50.854;20.580;2023-08-12T09:58:57;22.80;99.90
21759;DHT22;11041;50.854;20.580;2023-08-12T10:01:28;22.90;99.90
21759;DHT22;11041;50.854;20.580;2023-08-12T10:04:01;23.00;99.90
21759;DHT22;11041;50.854;20.580;2023-08-12T10:06:37;22.90;99.90
21759;DHT22;11041;50.854;20.580;2023-08-12T10:09:07;22.90;99.90
21759;DHT22;11041;50.854;20.580;2023-08-12T10:11:41;22.90;99.90
21759;DHT22;11041;50.854;20.580;2023-08-12T10:14:15;23.00;99.90
21759;DHT22;11041;50.854;20.580;2023-08-12T10:16:48;23.10;99.90
21759;DHT22;11041;50.854;20.580;2023-08-12T10:19:17;23.20;99.90
21759;DHT22;11041;50.854;20.580;2023-08-12T10:21:57;23.20;99.90
21759;DHT22;11041;50.854;20.580;2023-08-12T10:24:29;23.30;99.90
21759;DHT22;11041;50.854;20.580;2023-08-12T10:27:07;23.20;99.90
21759;DHT22;11041;50.854;20.580;2023-08-12T10:29:37;23.20;99.90
21759;DHT22;11041;50.854;20.580;2023-08-12T10:32:10;23.20;99.90
21759;DHT22;11041;50.854;20.580;2023-08-12T10:34:43;23.00;99.90
21759;DHT22;11041;50.854;20.580;2023-08-12T10:37:30;23.10;99.90
21759;DHT22;11041;50.854;20.580;2023-08-12T10:40:01;23.00;99.90
21759;DHT22;11041;50.854;20.580;2023-08-12T10:42:44;23.20;99.90
21759;DHT22;11041;50.854;20.580;2023-08-12T10:45:17;23.30;99.90
21759;DHT22;11041;50.854;20.580;2023-08-12T10:48:09;23.30;99.90
21759;DHT22;11041;50.854;20.580;2023-08-12T10:50:49;23.30;99.90
21759;DHT22;11041;50.854;20.580;2023-08-12T10:53:32;23.40;99.90
21759;DHT22;11041;50.854;20.580;2023-08-12T10:56:07;23.30;99.90
21759;DHT22;11041;50.854;20.580;2023-08-12T10:58:47;23.50;99.90
21759;DHT22;11041;50.854;20.580;2023-08-12T11:01:22;23.80;99.90
21759;DHT22;11041;50.854;20.580;2023-08-12T11:03:55;23.70;99.90
21759;DHT22;11041;50.854;20.580;2023-08-12T11:06:29;23.60;99.90
21759;DHT22;11041;50.854;20.580;2023-08-12T11:09:12;23.50;99.90
21759;DHT22;11041;50.854;20.580;2023-08-12T11:11:42;23.80;99.90
21759;DHT22;11041;50.854;20.580;2023-08-12T11:14:27;23.90;99.90
21759;DHT22;11041;50.854;20.580;2023-08-12T11:17:17;23.80;99.90
21759;DHT22;11041;50.854;20.580;2023-08-12T11:19:58;23.70;99.90
21759;DHT22;11041;50.854;20.580;2023-08-12T11:22:32;24.10;99.90
21759;DHT22;11041;50.854;20.580;2023-08-12T11:25:08;24.30;99.90
21759;DHT22;11041;50.854;20.580;2023-08-12T11:30:14;24.70;99.90
21759;DHT22;11041;50.854;20.580;2023-08-12T11:32:52;24.60;99.90
21759;DHT22;11041;50.854;20.580;2023-08-12T11:35:22;24.60;99.90
21759;DHT22;11041;50.854;20.580;2023-08-12T11:37:55;24.40;99.90
21759;DHT22;11041;50.854;20.580;2023-08-12T11:40:29;24.40;99.90
21759;DHT22;11041;50.854;20.580;2023-08-12T11:42:57;24.40;99.90
21759;DHT22;11041;50.854;20.580;2023-08-12T11:45:30;24.50;99.90
21759;DHT22;11041;50.854;20.580;2023-08-12T11:48:02;24.70;99.90
21759;DHT22;11041;50.854;20.580;2023-08-12T11:50:32;24.70;99.90
21759;DHT22;11041;50.854;20.580;2023-08-12T11:52:59;24.60;99.90
21759;DHT22;11041;50.854;20.580;2023-08-12T11:55:29;24.80;99.90
21759;DHT22;11041;50.854;20.580;2023-08-12T11:58:00;25.10;99.90
21759;DHT22;11041;50.854;20.580;2023-08-12T12:00:29;25.50;99.90
21759;DHT22;11041;50.854;20.580;2023-08-12T12:02:59;25.10;99.90
21759;DHT22;11041;50.854;20.580;2023-08-12T12:05:28;25.40;99.90
21759;DHT22;11041;50.854;20.580;2023-08-12T12:08:00;25.60;99.90
21759;DHT22;11041;50.854;20.580;2023-08-12T12:10:32;25.70;99.90
21759;DHT22;11041;50.854;20.580;2023-08-12T12:13:07;25.50;99.90
21759;DHT22;11041;50.854;20.580;2023-08-12T12:15:41;25.50;99.90
21759;DHT22;11041;50.854;20.580;2023-08-12T12:18:13;25.60;99.90
21759;DHT22;11041;50.854;20.580;2023-08-12T12:20:56;25.70;99.90
21759;DHT22;11041;50.854;20.580;2023-08-12T12:23:32;25.30;99.90
21759;DHT22;11041;50.854;20.580;2023-08-12T12:26:03;25.40;99.90
21759;DHT22;11041;50.854;20.580;2023-08-12T12:28:31;25.50;99.90
21759;DHT22;11041;50.854;20.580;2023-08-12T12:30:58;25.60;99.90
21759;DHT22;11041;50.854;20.580;2023-08-12T12:33:28;25.70;99.90
21759;DHT22;11041;50.854;20.580;2023-08-12T12:36:01;25.50;99.90
21759;DHT22;11041;50.854;20.580;2023-08-12T12:38:28;25.50;99.90
21759;DHT22;11041;50.854;20.580;2023-08-12T12:40:59;25.60;99.90
21759;DHT22;11041;50.854;20.580;2023-08-12T12:43:27;25.90;99.90
21759;DHT22;11041;50.854;20.580;2023-08-12T12:45:58;26.30;99.90
21759;DHT22;11041;50.854;20.580;2023-08-12T12:48:25;26.50;99.90
21759;DHT22;11041;50.854;20.580;2023-08-12T12:50:52;26.40;99.90
21759;DHT22;11041;50.854;20.580;2023-08-12T12:53:21;26.30;99.90
21759;DHT22;11041;50.854;20.580;2023-08-12T12:55:49;26.20;99.90
21759;DHT22;11041;50.854;20.580;2023-08-12T12:58:18;26.30;99.90
21759;DHT22;11041;50.854;20.580;2023-08-12T13:00:50;26.30;99.90
21759;DHT22;11041;50.854;20.580;2023-08-12T13:03:17;26.90;99.90
21759;DHT22;11041;50.854;20.580;2023-08-12T13:05:51;27.40;99.90
21759;DHT22;11041;50.854;20.580;2023-08-12T13:08:21;27.80;99.90
21759;DHT22;11041;50.854;20.580;2023-08-12T13:10:54;27.70;98.70
21759;DHT22;11041;50.854;20.580;2023-08-12T13:13:21;27.60;96.80
21759;DHT22;11041;50.854;20.580;2023-08-12T13:15:57;27.20;97.50
21759;DHT22;11041;50.854;20.580;2023-08-12T13:18:25;27.00;97.60
21759;DHT22;11041;50.854;20.580;2023-08-12T13:20:54;27.10;99.50
21759;DHT22;11041;50.854;20.580;2023-08-12T13:23:22;27.10;97.40
21759;DHT22;11041;50.854;20.580;2023-08-12T13:25:49;27.50;98.70
21759;DHT22;11041;50.854;20.580;2023-08-12T13:28:16;28.00;96.80
21759;DHT22;11041;50.854;20.580;2023-08-12T13:30:44;28.50;96.40
21759;DHT22;11041;50.854;20.580;2023-08-12T13:33:11;29.00;95.60
21759;DHT22;11041;50.854;20.580;2023-08-12T13:35:38;29.10;94.80
21759;DHT22;11041;50.854;20.580;2023-08-12T13:38:06;29.40;92.30
21759;DHT22;11041;50.854;20.580;2023-08-12T13:40:33;29.60;92.80
21759;DHT22;11041;50.854;20.580;2023-08-12T13:42:59;29.70;92.00
21759;DHT22;11041;50.854;20.580;2023-08-12T13:45:26;29.80;92.60
21759;DHT22;11041;50.854;20.580;2023-08-12T13:47:55;30.20;92.20
21759;DHT22;11041;50.854;20.580;2023-08-12T13:50:22;30.30;90.60
21759;DHT22;11041;50.854;20.580;2023-08-12T13:52:52;30.00;90.50
21759;DHT22;11041;50.854;20.580;2023-08-12T13:55:19;29.40;91.10
21759;DHT22;11041;50.854;20.580;2023-08-12T13:57:45;28.70;91.80
21759;DHT22;11041;50.854;20.580;2023-08-12T14:00:15;28.20;91.20
21759;DHT22;11041;50.854;20.580;2023-08-12T14:02:46;28.00;92.10
21759;DHT22;11041;50.854;20.580;2023-08-12T14:05:16;28.60;91.10
21759;DHT22;11041;50.854;20.580;2023-08-12T14:07:45;28.80;90.80
21759;DHT22;11041;50.854;20.580;2023-08-12T14:10:12;28.90;91.50
21759;DHT22;11041;50.854;20.580;2023-08-12T14:12:42;29.60;89.30
21759;DHT22;11041;50.854;20.580;2023-08-12T14:15:15;29.70;89.70
21759;DHT22;11041;50.854;20.580;2023-08-12T14:17:44;29.80;89.60
21759;DHT22;11041;50.854;20.580;2023-08-12T14:20:12;30.40;90.00
21759;DHT22;11041;50.854;20.580;2023-08-12T14:22:41;29.50;88.10
21759;DHT22;11041;50.854;20.580;2023-08-12T14:25:12;30.40;89.10
21759;DHT22;11041;50.854;20.580;2023-08-12T14:27:39;30.70;90.60
21759;DHT22;11041;50.854;20.580;2023-08-12T14:30:07;30.80;90.20
21759;DHT22;11041;50.854;20.580;2023-08-12T14:32:34;29.50;90.70
21759;DHT22;11041;50.854;20.580;2023-08-12T14:35:01;29.20;90.20
21759;DHT22;11041;50.854;20.580;2023-08-12T14:37:29;29.60;88.30
21759;DHT22;11041;50.854;20.580;2023-08-12T14:39:56;28.90;89.00
21759;DHT22;11041;50.854;20.580;2023-08-12T14:42:23;28.90;89.90
21759;DHT22;11041;50.854;20.580;2023-08-12T14:44:55;28.80;89.40
21759;DHT22;11041;50.854;20.580;2023-08-12T14:47:23;29.50;90.30
21759;DHT22;11041;50.854;20.580;2023-08-12T14:49:50;29.50;88.70
21759;DHT22;11041;50.854;20.580;2023-08-12T14:52:19;29.80;92.40
21759;DHT22;11041;50.854;20.580;2023-08-12T14:54:47;30.30;89.20
21759;DHT22;11041;50.854;20.580;2023-08-12T14:57:16;30.10;91.90
21759;DHT22;11041;50.854;20.580;2023-08-12T14:59:48;29.40;89.40
21759;DHT22;11041;50.854;20.580;2023-08-12T15:02:19;29.40;89.40
21759;DHT22;11041;50.854;20.580;2023-08-12T15:04:50;29.40;89.70
21759;DHT22;11041;50.854;20.580;2023-08-12T15:07:17;29.50;88.20
21759;DHT22;11041;50.854;20.580;2023-08-12T15:09:48;29.70;89.40
21759;DHT22;11041;50.854;20.580;2023-08-12T15:12:17;30.20;88.60
21759;DHT22;11041;50.854;20.580;2023-08-12T15:14:44;30.30;88.10
21759;DHT22;11041;50.854;20.580;2023-08-12T15:17:11;29.50;87.40
21759;DHT22;11041;50.854;20.580;2023-08-12T15:19:38;29.80;88.20
21759;DHT22;11041;50.854;20.580;2023-08-12T15:22:05;29.50;87.70
21759;DHT22;11041;50.854;20.580;2023-08-12T15:24:34;29.80;91.00
21759;DHT22;11041;50.854;20.580;2023-08-12T15:27:01;29.90;91.90
21759;DHT22;11041;50.854;20.580;2023-08-12T15:29:28;29.90;91.40
21759;DHT22;11041;50.854;20.580;2023-08-12T15:31:55;29.90;91.70
21759;DHT22;11041;50.854;20.580;2023-08-12T15:34:22;30.10;91.90
21759;DHT22;11041;50.854;20.580;2023-08-12T15:36:54;29.70;91.20
21759;DHT22;11041;50.854;20.580;2023-08-12T15:39:23;29.50;91.70
21759;DHT22;11041;50.854;20.580;2023-08-12T15:41:50;29.50;91.40
21759;DHT22;11041;50.854;20.580;2023-08-12T15:44:18;28.80;91.10
21759;DHT22;11041;50.854;20.580;2023-08-12T15:46:46;28.80;89.80